sensor_id;sensor_type;location;lat;lon;timestamp;pressure;altitude;pressure_sealevel;temperature;humidity
16094;BME280;8151;47.824;12.092;2023-02-13T00:01:26;98159.31;;;4.74;71.27
16094;BME280;8151;47.824;12.092;2023-02-13T00:03:54;98155.78;;;4.76;71.53
16094;BME280;8151;47.824;12.092;2023-02-13T00:06:23;98155.13;;;4.72;71.75
16094;BME280;8151;47.824;12.092;2023-02-13T00:08:52;98150.13;;;4.67;71.43
16094;BME280;8151;47.824;12.092;2023-02-13T00:11:20;98153.75;;;4.65;71.47
16094;BME280;8151;47.824;12.092;2023-02-13T00:13:48;98154.13;;;4.59;71.57
16094;BME280;8151;47.824;12.092;2023-02-13T00:16:18;98148.13;;;4.57;71.88
16094;BME280;8151;47.824;12.092;2023-02-13T00:18:46;98153.44;;;4.55;71.39
16094;BME280;8151;47.824;12.092;2023-02-13T00:21:15;98145.66;;;4.53;71.48
16094;BME280;8151;47.824;12.092;2023-02-13T00:23:43;98142.28;;;4.51;71.31
16094;BME280;8151;47.824;12.092;2023-02-13T00:26:14;98148.53;;;4.49;71.43
16094;BME280;8151;47.824;12.092;2023-02-13T00:28:43;98138.06;;;4.49;70.91
16094;BME280;8151;47.824;12.092;2023-02-13T00:31:12;98142.53;;;4.47;70.94
16094;BME280;8151;47.824;12.092;2023-02-13T00:33:43;98139.00;;;4.48;70.74
16094;BME280;8151;47.824;12.092;2023-02-13T00:36:13;98140.59;;;4.50;70.77
16094;BME280;8151;47.824;12.092;2023-02-13T00:38:42;98137.03;;;4.51;71.03
16094;BME280;8151;47.824;12.092;2023-02-13T00:41:11;98139.56;;;4.53;70.86
16094;BME280;8151;47.824;12.092;2023-02-13T00:43:40;98140.25;;;4.57;70.07
16094;BME280;8151;47.824;12.092;2023-02-13T00:46:09;98134.25;;;4.54;70.65
16094;BME280;8151;47.824;12.092;2023-02-13T00:48:38;98143.72;;;4.57;70.06
16094;BME280;8151;47.824;12.092;2023-02-13T00:51:08;98141.94;;;4.58;69.91
16094;BME280;8151;47.824;12.092;2023-02-13T00:53:37;98133.41;;;4.54;69.72
16094;BME280;8151;47.824;12.092;2023-02-13T00:56:07;98132.66;;;4.52;70.32
16094;BME280;8151;47.824;12.092;2023-02-13T00:58:36;98132.53;;;4.53;69.98
16094;BME280;8151;47.824;12.092;2023-02-13T01:01:05;98136.03;;;4.54;69.93
16094;BME280;8151;47.824;12.092;2023-02-13T01:03:33;98134.25;;;4.54;70.15
16094;BME280;8151;47.824;12.092;2023-02-13T01:06:01;98129.16;;;4.51;70.18
16094;BME280;8151;47.824;12.092;2023-02-13T01:08:31;98125.91;;;4.48;69.88
16094;BME280;8151;47.824;12.092;2023-02-13T01:11:00;98124.34;;;4.44;70.08
16094;BME280;8151;47.824;12.092;2023-02-13T01:13:28;98122.00;;;4.39;70.30
16094;BME280;8151;47.824;12.092;2023-02-13T01:15:57;98128.00;;;4.41;69.93
16094;BME280;8151;47.824;12.092;2023-02-13T01:18:35;98123.53;;;4.43;69.98
16094;BME280;8151;47.824;12.092;2023-02-13T01:21:05;98119.31;;;4.41;70.17
16094;BME280;8151;47.824;12.092;2023-02-13T01:23:37;98120.56;;;4.33;70.33
16094;BME280;8151;47.824;12.092;2023-02-13T01:26:07;98113.97;;;4.26;70.47
16094;BME280;8151;47.824;12.092;2023-02-13T01:28:38;98115.84;;;4.24;70.63
16094;BME280;8151;47.824;12.092;2023-02-13T01:31:06;98115.00;;;4.24;70.22
16094;BME280;8151;47.824;12.092;2023-02-13T01:33:35;98113.91;;;4.28;70.50
16094;BME280;8151;47.824;12.092;2023-02-13T01:36:07;98111.13;;;4.31;70.52
16094;BME280;8151;47.824;12.092;2023-02-13T01:38:37;98121.53;;;4.32;70.37
16094;BME280;8151;47.824;12.092;2023-02-13T01:41:06;98112.56;;;4.37;70.05
16094;BME280;8151;47.824;12.092;2023-02-13T01:43:50;98121.34;;;4.36;70.53
16094;BME280;8151;47.824;12.092;2023-02-13T01:46:23;98112.72;;;4.33;70.00
16094;BME280;8151;47.824;12.092;2023-02-13T01:48:56;98116.94;;;4.36;70.38
16094;BME280;8151;47.824;12.092;2023-02-13T01:51:28;98110.69;;;4.39;70.37
16094;BME280;8151;47.824;12.092;2023-02-13T01:54:02;98107.88;;;4.42;70.43
16094;BME280;8151;47.824;12.092;2023-02-13T01:56:34;98110.25;;;4.46;70.38
16094;BME280;8151;47.824;12.092;2023-02-13T01:59:08;98110.06;;;4.49;70.62
16094;BME280;8151;47.824;12.092;2023-02-13T02:01:37;98115.97;;;4.53;70.23
16094;BME280;8151;47.824;12.092;2023-02-13T02:04:08;98111.50;;;4.55;70.55
16094;BME280;8151;47.824;12.092;2023-02-13T02:06:41;98112.38;;;4.56;70.75
16094;BME280;8151;47.824;12.092;2023-02-13T02:09:13;98120.97;;;4.58;70.58
16094;BME280;8151;47.824;12.092;2023-02-13T02:11:49;98114.78;;;4.59;70.87
16094;BME280;8151;47.824;12.092;2023-02-13T02:14:19;98119.94;;;4.60;70.79
16094;BME280;8151;47.824;12.092;2023-02-13T02:16:47;98113.88;;;4.60;70.82
16094;BME280;8151;47.824;12.092;2023-02-13T02:19:23;98122.72;;;4.57;70.90
16094;BME280;8151;47.824;12.092;2023-02-13T02:22:08;98116.75;;;4.55;70.70
16094;BME280;8151;47.824;12.092;2023-02-13T02:25:07;98118.19;;;4.45;71.16
16094;BME280;8151;47.824;12.092;2023-02-13T02:27:58;98119.53;;;4.36;71.14
16094;BME280;8151;47.824;12.092;2023-02-13T02:33:38;98116.09;;;4.20;71.08
16094;BME280;8151;47.824;12.092;2023-02-13T02:36:19;98116.09;;;4.20;71.33
16094;BME280;8151;47.824;12.092;2023-02-13T02:39:01;98116.88;;;4.22;71.07
16094;BME280;8151;47.824;12.092;2023-02-13T02:41:40;98116.78;;;4.23;71.16
16094;BME280;8151;47.824;12.092;2023-02-13T02:44:26;98119.31;;;4.25;71.20
16094;BME280;8151;47.824;12.092;2023-02-13T02:47:07;98131.47;;;4.26;71.33
16094;BME280;8151;47.824;12.092;2023-02-13T02:50:03;98127.75;;;4.30;70.78
16094;BME280;8151;47.824;12.092;2023-02-13T02:52:44;98133.19;;;4.27;70.85
16094;BME280;8151;47.824;12.092;2023-02-13T02:55:22;98120.31;;;4.22;71.07
16094;BME280;8151;47.824;12.092;2023-02-13T02:57:59;98122.09;;;4.22;71.40
16094;BME280;8151;47.824;12.092;2023-02-13T03:00:48;98126.50;;;4.21;70.99
16094;BME280;8151;47.824;12.092;2023-02-13T03:03:35;98125.06;;;4.16;71.42
16094;BME280;8151;47.824;12.092;2023-02-13T03:06:37;98128.88;;;4.10;71.39
16094;BME280;8151;47.824;12.092;2023-02-13T03:09:10;98139.44;;;4.08;71.18
16094;BME280;8151;47.824;12.092;2023-02-13T03:11:58;98137.56;;;4.10;71.35
16094;BME280;8151;47.824;12.092;2023-02-13T03:14:51;98137.41;;;4.13;71.53
16094;BME280;8151;47.824;12.092;2023-02-13T03:17:23;98146.03;;;4.16;71.43
16094;BME280;8151;47.824;12.092;2023-02-13T03:20:24;98141.47;;;4.19;71.34
16094;BME280;8151;47.824;12.092;2023-02-13T03:23:31;98140.09;;;4.12;71.46
16094;BME280;8151;47.824;12.092;2023-02-13T03:26:12;98142.47;;;4.17;71.66
16094;BME280;8151;47.824;12.092;2023-02-13T03:28:50;98150.16;;;4.20;72.03
16094;BME280;8151;47.824;12.092;2023-02-13T03:31:48;98141.47;;;4.19;71.64
16094;BME280;8151;47.824;12.092;2023-02-13T03:34:31;98141.28;;;4.22;71.42
16094;BME280;8151;47.824;12.092;2023-02-13T03:37:27;98147.38;;;4.23;71.61
16094;BME280;8151;47.824;12.092;2023-02-13T03:40:20;98144.94;;;4.20;71.35
16094;BME280;8151;47.824;12.092;2023-02-13T03:42:52;98145.84;;;4.19;71.85
16094;BME280;8151;47.824;12.092;2023-02-13T03:45:26;98141.41;;;4.21;71.59
16094;BME280;8151;47.824;12.092;2023-02-13T03:48:17;98144.94;;;4.20;71.81
16094;BME280;8151;47.824;12.092;2023-02-13T03:51:05;98137.22;;;4.17;71.57
16094;BME280;8151;47.824;12.092;2023-02-13T03:53:37;98144.09;;;4.19;71.56
16094;BME280;8151;47.824;12.092;2023-02-13T03:56:20;98144.84;;;4.21;71.92
16094;BME280;8151;47.824;12.092;2023-02-13T03:59:09;98148.22;;;4.23;71.93
16094;BME280;8151;47.824;12.092;2023-02-13T04:01:52;98156.09;;;4.23;72.05
16094;BME280;8151;47.824;12.092;2023-02-13T04:04:26;98150.25;;;4.18;71.75
16094;BME280;8151;47.824;12.092;2023-02-13T04:06:59;98152.19;;;4.14;72.00
16094;BME280;8151;47.824;12.092;2023-02-13T04:09:31;98159.28;;;4.12;72.35
16094;BME280;8151;47.824;12.092;2023-02-13T04:12:07;98148.72;;;4.14;72.66
16094;BME280;8151;47.824;12.092;2023-02-13T04:14:39;98151.28;;;4.16;72.05
16094;BME280;8151;47.824;12.092;2023-02-13T04:17:15;98147.63;;;4.18;72.32
16094;BME280;8151;47.824;12.092;2023-02-13T04:19:45;98151.09;;;4.19;72.42
16094;BME280;8151;47.824;12.092;2023-02-13T04:22:13;98152.28;;;4.13;72.51
16094;BME280;8151;47.824;12.092;2023-02-13T04:24:42;98146.44;;;4.08;72.71
16094;BME280;8151;47.824;12.092;2023-02-13T04:27:13;98152.88;;;4.02;72.81
16094;BME280;8151;47.824;12.092;2023-02-13T04:29:42;98153.19;;;3.96;72.90
16094;BME280;8151;47.824;12.092;2023-02-13T04:32:11;98148.03;;;3.94;72.85
16094;BME280;8151;47.824;12.092;2023-02-13T04:34:41;98153.53;;;3.90;73.13
16094;BME280;8151;47.824;12.092;2023-02-13T04:37:09;98143.13;;;3.88;73.29
16094;BME280;8151;47.824;12.092;2023-02-13T04:39:37;98137.22;;;3.85;73.26
16094;BME280;8151;47.824;12.092;2023-02-13T04:42:06;98141.69;;;3.83;73.33
16094;BME280;8151;47.824;12.092;2023-02-13T04:44:36;98129.78;;;3.77;73.18
16094;BME280;8151;47.824;12.092;2023-02-13T04:47:04;98139.88;;;3.67;73.25
16094;BME280;8151;47.824;12.092;2023-02-13T04:49:32;98137.59;;;3.61;73.51
16094;BME280;8151;47.824;12.092;2023-02-13T04:52:01;98132.59;;;3.57;73.65
16094;BME280;8151;47.824;12.092;2023-02-13T04:54:29;98127.53;;;3.53;73.91
16094;BME280;8151;47.824;12.092;2023-02-13T04:56:58;98135.72;;;3.47;73.78
16094;BME280;8151;47.824;12.092;2023-02-13T04:59:26;98129.88;;;3.42;73.77
16094;BME280;8151;47.824;12.092;2023-02-13T05:01:56;98136.00;;;3.41;74.04
16094;BME280;8151;47.824;12.092;2023-02-13T05:04:25;98130.69;;;3.43;74.03
16094;BME280;8151;47.824;12.092;2023-02-13T05:06:55;98127.19;;;3.44;73.81
16094;BME280;8151;47.824;12.092;2023-02-13T05:09:23;98125.47;;;3.43;73.73
16094;BME280;8151;47.824;12.092;2023-02-13T05:11:52;98126.41;;;3.42;73.73
16094;BME280;8151;47.824;12.092;2023-02-13T05:14:20;98125.28;;;3.30;73.90
16094;BME280;8151;47.824;12.092;2023-02-13T05:16:49;98130.16;;;3.20;74.27
16094;BME280;8151;47.824;12.092;2023-02-13T05:19:19;98128.44;;;3.19;74.21
16094;BME280;8151;47.824;12.092;2023-02-13T05:21:47;98127.59;;;3.19;74.24
16094;BME280;8151;47.824;12.092;2023-02-13T05:24:33;98124.97;;;3.19;73.98
16094;BME280;8151;47.824;12.092;2023-02-13T05:27:01;98124.28;;;3.15;74.10
16094;BME280;8151;47.824;12.092;2023-02-13T05:29:30;98124.06;;;3.02;73.88
16094;BME280;8151;47.824;12.092;2023-02-13T05:31:58;98126.22;;;2.94;74.10
16094;BME280;8151;47.824;12.092;2023-02-13T05:34:28;98123.09;;;2.87;74.08
16094;BME280;8151;47.824;12.092;2023-02-13T05:36:57;98126.16;;;2.78;74.44
16094;BME280;8151;47.824;12.092;2023-02-13T05:39:25;98129.06;;;2.72;74.27
16094;BME280;8151;47.824;12.092;2023-02-13T05:41:53;98130.69;;;2.74;74.22
16094;BME280;8151;47.824;12.092;2023-02-13T05:44:22;98127.22;;;2.74;74.07
16094;BME280;8151;47.824;12.092;2023-02-13T05:46:50;98128.06;;;2.74;73.92
16094;BME280;8151;47.824;12.092;2023-02-13T05:49:20;98129.13;;;2.70;73.81
16094;BME280;8151;47.824;12.092;2023-02-13T05:51:50;98127.03;;;2.60;73.96
16094;BME280;8151;47.824;12.092;2023-02-13T05:54:19;98133.34;;;2.55;73.86
16094;BME280;8151;47.824;12.092;2023-02-13T05:56:57;98131.50;;;2.58;73.92
16094;BME280;8151;47.824;12.092;2023-02-13T05:59:25;98137.03;;;2.51;73.70
16094;BME280;8151;47.824;12.092;2023-02-13T06:01:54;98139.59;;;2.34;73.80
16094;BME280;8151;47.824;12.092;2023-02-13T06:04:23;98146.59;;;2.33;74.14
16094;BME280;8151;47.824;12.092;2023-02-13T06:06:53;98140.44;;;2.34;73.92
16094;BME280;8151;47.824;12.092;2023-02-13T06:09:21;98147.50;;;2.32;73.88
16094;BME280;8151;47.824;12.092;2023-02-13T06:11:50;98151.59;;;2.38;73.56
16094;BME280;8151;47.824;12.092;2023-02-13T06:14:18;98156.63;;;2.43;73.62
16094;BME280;8151;47.824;12.092;2023-02-13T06:16:47;98162.75;;;2.42;73.34
16094;BME280;8151;47.824;12.092;2023-02-13T06:19:15;98160.38;;;2.37;73.30
16094;BME280;8151;47.824;12.092;2023-02-13T06:21:43;98165.72;;;2.34;73.21
16094;BME280;8151;47.824;12.092;2023-02-13T06:24:13;98168.50;;;2.31;73.25
16094;BME280;8151;47.824;12.092;2023-02-13T06:26:41;98174.50;;;2.33;73.33
16094;BME280;8151;47.824;12.092;2023-02-13T06:29:10;98174.75;;;2.27;73.31
16094;BME280;8151;47.824;12.092;2023-02-13T06:31:38;98170.47;;;2.26;73.07
16094;BME280;8151;47.824;12.092;2023-02-13T06:34:07;98177.38;;;2.27;73.08
16094;BME280;8151;47.824;12.092;2023-02-13T06:36:35;98177.38;;;2.27;73.12
16094;BME280;8151;47.824;12.092;2023-02-13T06:39:04;98189.06;;;2.20;73.08
16094;BME280;8151;47.824;12.092;2023-02-13T06:41:34;98181.28;;;2.18;72.97
16094;BME280;8151;47.824;12.092;2023-02-13T06:44:02;98187.41;;;2.17;72.76
16094;BME280;8151;47.824;12.092;2023-02-13T06:46:31;98198.72;;;2.17;72.94
16094;BME280;8151;47.824;12.092;2023-02-13T06:48:59;98197.00;;;2.16;72.79
16094;BME280;8151;47.824;12.092;2023-02-13T06:51:27;98200.28;;;2.22;72.88
16094;BME280;8151;47.824;12.092;2023-02-13T06:53:56;98201.53;;;2.32;72.43
16094;BME280;8151;47.824;12.092;2023-02-13T06:56:24;98200.03;;;2.45;72.59
16094;BME280;8151;47.824;12.092;2023-02-13T06:58:54;98206.38;;;2.59;72.29
16094;BME280;8151;47.824;12.092;2023-02-13T07:01:22;98205.44;;;2.60;72.19
16094;BME280;8151;47.824;12.092;2023-02-13T07:03:51;98206.44;;;2.57;72.38
16094;BME280;8151;47.824;12.092;2023-02-13T07:06:20;98215.06;;;2.59;72.18
16094;BME280;8151;47.824;12.092;2023-02-13T07:08:48;98216.66;;;2.62;72.06
16094;BME280;8151;47.824;12.092;2023-02-13T07:11:22;98223.66;;;2.61;72.13
16094;BME280;8151;47.824;12.092;2023-02-13T07:13:51;98232.34;;;2.62;72.14
16094;BME280;8151;47.824;12.092;2023-02-13T07:16:21;98231.31;;;2.66;72.07
16094;BME280;8151;47.824;12.092;2023-02-13T07:18:49;98235.47;;;2.70;72.11
16094;BME280;8151;47.824;12.092;2023-02-13T07:21:17;98241.31;;;2.75;72.02
16094;BME280;8151;47.824;12.092;2023-02-13T07:23:46;98244.50;;;2.82;71.94
16094;BME280;8151;47.824;12.092;2023-02-13T07:26:14;98233.72;;;2.88;71.89
16094;BME280;8151;47.824;12.092;2023-02-13T07:28:43;98244.06;;;2.91;71.81
16094;BME280;8151;47.824;12.092;2023-02-13T07:31:11;98250.13;;;2.91;71.94
16094;BME280;8151;47.824;12.092;2023-02-13T07:33:41;98249.19;;;2.92;72.00
16094;BME280;8151;47.824;12.092;2023-02-13T07:36:09;98255.19;;;2.94;71.92
16094;BME280;8151;47.824;12.092;2023-02-13T07:38:38;98250.91;;;2.93;71.88
16094;BME280;8151;47.824;12.092;2023-02-13T07:41:06;98250.44;;;2.85;72.04
16094;BME280;8151;47.824;12.092;2023-02-13T07:43:35;98253.03;;;2.85;72.26
16094;BME280;8151;47.824;12.092;2023-02-13T07:46:04;98259.75;;;2.91;72.18
16094;BME280;8151;47.824;12.092;2023-02-13T07:48:32;98254.16;;;2.99;72.04
16094;BME280;8151;47.824;12.092;2023-02-13T07:51:04;98263.44;;;3.04;71.97
16094;BME280;8151;47.824;12.092;2023-02-13T07:53:32;98261.53;;;3.08;71.97
16094;BME280;8151;47.824;12.092;2023-02-13T07:56:04;98267.38;;;3.13;72.05
16094;BME280;8151;47.824;12.092;2023-02-13T07:58:33;98254.94;;;3.18;71.99
16094;BME280;8151;47.824;12.092;2023-02-13T08:01:05;98261.72;;;3.22;71.90
16094;BME280;8151;47.824;12.092;2023-02-13T08:03:34;98258.16;;;3.23;71.89
16094;BME280;8151;47.824;12.092;2023-02-13T08:06:05;98254.63;;;3.24;71.66
16094;BME280;8151;47.824;12.092;2023-02-13T08:08:34;98257.94;;;3.28;71.92
16094;BME280;8151;47.824;12.092;2023-02-13T08:11:05;98258.63;;;3.31;72.13
16094;BME280;8151;47.824;12.092;2023-02-13T08:13:52;98260.72;;;3.42;71.85
16094;BME280;8151;47.824;12.092;2023-02-13T08:16:20;98259.63;;;3.46;71.75
16094;BME280;8151;47.824;12.092;2023-02-13T08:18:49;98262.88;;;3.51;71.80
16094;BME280;8151;47.824;12.092;2023-02-13T08:21:19;98268.69;;;3.57;71.80
16094;BME280;8151;47.824;12.092;2023-02-13T08:23:47;98267.66;;;3.61;71.47
16094;BME280;8151;47.824;12.092;2023-02-13T08:26:18;98271.25;;;3.58;72.05
16094;BME280;8151;47.824;12.092;2023-02-13T08:28:46;98269.31;;;3.62;72.09
16094;BME280;8151;47.824;12.092;2023-02-13T08:31:14;98266.47;;;3.66;71.97
16094;BME280;8151;47.824;12.092;2023-02-13T08:33:43;98271.41;;;3.72;72.16
16094;BME280;8151;47.824;12.092;2023-02-13T08:36:11;98275.25;;;3.83;71.89
16094;BME280;8151;47.824;12.092;2023-02-13T08:38:41;98279.31;;;3.88;71.69
16094;BME280;8151;47.824;12.092;2023-02-13T08:41:09;98272.22;;;3.90;71.65
16094;BME280;8151;47.824;12.092;2023-02-13T08:43:38;98278.16;;;3.94;71.77
16094;BME280;8151;47.824;12.092;2023-02-13T08:46:06;98277.84;;;4.00;71.64
16094;BME280;8151;47.824;12.092;2023-02-13T08:48:35;98284.44;;;4.07;71.83
16094;BME280;8151;47.824;12.092;2023-02-13T08:51:05;98285.03;;;4.12;71.42
16094;BME280;8151;47.824;12.092;2023-02-13T08:53:36;98289.19;;;4.17;71.51
16094;BME280;8151;47.824;12.092;2023-02-13T08:56:06;98290.13;;;4.16;71.65
16094;BME280;8151;47.824;12.092;2023-02-13T08:58:35;98285.66;;;4.18;71.76
16094;BME280;8151;47.824;12.092;2023-02-13T09:01:04;98287.09;;;4.23;71.80
16094;BME280;8151;47.824;12.092;2023-02-13T09:03:33;98278.06;;;4.29;71.55
16094;BME280;8151;47.824;12.092;2023-02-13T09:06:02;98279.53;;;4.34;71.48
16094;BME280;8151;47.824;12.092;2023-02-13T09:08:31;98284.34;;;4.42;71.33
16094;BME280;8151;47.824;12.092;2023-02-13T09:11:00;98282.31;;;4.47;71.47
16094;BME280;8151;47.824;12.092;2023-02-13T09:13:31;98281.97;;;4.53;71.66
16094;BME280;8151;47.824;12.092;2023-02-13T09:16:01;98274.91;;;4.56;71.79
16094;BME280;8151;47.824;12.092;2023-02-13T09:18:33;98273.69;;;4.61;71.16
16094;BME280;8151;47.824;12.092;2023-02-13T09:21:04;98267.47;;;4.64;71.12
16094;BME280;8151;47.824;12.092;2023-02-13T09:23:34;98267.47;;;4.64;71.25
16094;BME280;8151;47.824;12.092;2023-02-13T09:26:07;98277.88;;;4.65;71.59
16094;BME280;8151;47.824;12.092;2023-02-13T09:28:37;98269.88;;;4.67;71.58
16094;BME280;8151;47.824;12.092;2023-02-13T09:31:07;98274.28;;;4.66;71.17
16094;BME280;8151;47.824;12.092;2023-02-13T09:33:36;98275.41;;;4.62;71.16
16094;BME280;8151;47.824;12.092;2023-02-13T09:36:06;98276.09;;;4.66;70.96
16094;BME280;8151;47.824;12.092;2023-02-13T09:38:35;98267.69;;;4.59;71.46
16094;BME280;8151;47.824;12.092;2023-02-13T09:41:06;98279.19;;;4.57;71.93
16094;BME280;8151;47.824;12.092;2023-02-13T09:43:43;98269.06;;;4.50;71.57
16094;BME280;8151;47.824;12.092;2023-02-13T09:46:16;98270.84;;;4.50;71.57
16094;BME280;8151;47.824;12.092;2023-02-13T09:48:49;98268.72;;;4.57;71.89
16094;BME280;8151;47.824;12.092;2023-02-13T09:51:19;98273.13;;;4.72;72.06
16094;BME280;8151;47.824;12.092;2023-02-13T09:53:52;98279.53;;;4.82;72.01
16094;BME280;8151;47.824;12.092;2023-02-13T09:56:31;98265.44;;;4.85;71.27
16094;BME280;8151;47.824;12.092;2023-02-13T09:59:14;98270.41;;;4.89;71.97
16094;BME280;8151;47.824;12.092;2023-02-13T10:01:48;98266.91;;;5.05;71.44
16094;BME280;8151;47.824;12.092;2023-02-13T10:04:26;98267.00;;;5.03;71.16
16094;BME280;8151;47.824;12.092;2023-02-13T10:07:08;98278.84;;;5.10;71.32
16094;BME280;8151;47.824;12.092;2023-02-13T10:09:45;98281.53;;;5.25;71.40
16094;BME280;8151;47.824;12.092;2023-02-13T10:12:21;98282.34;;;5.41;70.96
16094;BME280;8151;47.824;12.092;2023-02-13T10:15:04;98279.00;;;5.53;70.85
16094;BME280;8151;47.824;12.092;2023-02-13T10:17:42;98276.59;;;5.65;71.05
16094;BME280;8151;47.824;12.092;2023-02-13T10:20:21;98278.69;;;5.74;70.68
16094;BME280;8151;47.824;12.092;2023-02-13T10:22:56;98273.44;;;5.88;71.13
16094;BME280;8151;47.824;12.092;2023-02-13T10:25:29;98270.69;;;6.06;70.92
16094;BME280;8151;47.824;12.092;2023-02-13T10:28:05;98265.31;;;6.22;71.20
16094;BME280;8151;47.824;12.092;2023-02-13T10:30:42;98269.66;;;6.37;71.10
16094;BME280;8151;47.824;12.092;2023-02-13T10:33:17;98264.00;;;6.43;70.92
16094;BME280;8151;47.824;12.092;2023-02-13T10:35:52;98267.03;;;6.52;71.13
16094;BME280;8151;47.824;12.092;2023-02-13T10:38:27;98254.97;;;6.62;70.62
16094;BME280;8151;47.824;12.092;2023-02-13T10:41:19;98257.94;;;6.70;70.69
16094;BME280;8151;47.824;12.092;2023-02-13T10:44:01;98253.16;;;6.77;70.26
16094;BME280;8151;47.824;12.092;2023-02-13T10:46:42;98244.66;;;6.86;70.43
16094;BME280;8151;47.824;12.092;2023-02-13T10:49:31;98248.94;;;7.01;69.72
16094;BME280;8151;47.824;12.092;2023-02-13T10:52:10;98241.84;;;7.16;69.68
16094;BME280;8151;47.824;12.092;2023-02-13T10:55:04;98238.38;;;7.28;69.45
16094;BME280;8151;47.824;12.092;2023-02-13T10:57:50;98235.34;;;7.35;69.45
16094;BME280;8151;47.824;12.092;2023-02-13T11:00:28;98234.97;;;7.41;69.24
16094;BME280;8151;47.824;12.092;2023-02-13T11:03:00;98231.69;;;7.50;69.41
16094;BME280;8151;47.824;12.092;2023-02-13T11:05:32;98228.44;;;7.59;69.35
16094;BME280;8151;47.824;12.092;2023-02-13T11:08:00;98227.00;;;7.68;69.18
16094;BME280;8151;47.824;12.092;2023-02-13T11:10:29;98224.25;;;7.82;68.76
16094;BME280;8151;47.824;12.092;2023-02-13T11:13:14;98223.38;;;7.95;68.72
16094;BME280;8151;47.824;12.092;2023-02-13T11:15:55;98219.09;;;8.06;68.18
16094;BME280;8151;47.824;12.092;2023-02-13T11:18:28;98216.50;;;8.18;68.12
16094;BME280;8151;47.824;12.092;2023-02-13T11:21:02;98217.44;;;8.29;68.19
16094;BME280;8151;47.824;12.092;2023-02-13T11:23:37;98207.09;;;8.39;68.19
16094;BME280;8151;47.824;12.092;2023-02-13T11:26:07;98207.66;;;8.44;68.26
16094;BME280;8151;47.824;12.092;2023-02-13T11:28:37;98217.75;;;8.51;67.58
16094;BME280;8151;47.824;12.092;2023-02-13T11:31:12;98210.03;;;8.60;67.86
16094;BME280;8151;47.824;12.092;2023-02-13T11:33:43;98212.97;;;8.69;67.42
16094;BME280;8151;47.824;12.092;2023-02-13T11:36:14;98214.75;;;8.68;67.03
16094;BME280;8151;47.824;12.092;2023-02-13T11:38:42;98210.19;;;8.70;66.93
16094;BME280;8151;47.824;12.092;2023-02-13T11:41:12;98202.06;;;8.73;67.28
16094;BME280;8151;47.824;12.092;2023-02-13T11:43:47;98210.50;;;8.78;67.14
16094;BME280;8151;47.824;12.092;2023-02-13T11:46:19;98213.31;;;8.88;67.02
16094;BME280;8151;47.824;12.092;2023-02-13T11:48:58;98208.41;;;8.95;66.01
16094;BME280;8151;47.824;12.092;2023-02-13T11:51:42;98209.41;;;8.94;66.22
16094;BME280;8151;47.824;12.092;2023-02-13T11:54:28;98205.22;;;9.02;66.17
16094;BME280;8151;47.824;12.092;2023-02-13T11:56:58;98210.66;;;9.12;66.21
16094;BME280;8151;47.824;12.092;2023-02-13T11:59:39;98201.22;;;9.21;66.23
16094;BME280;8151;47.824;12.092;2023-02-13T12:02:17;98203.41;;;9.27;65.29
16094;BME280;8151;47.824;12.092;2023-02-13T12:04:48;98205.69;;;9.32;65.89
16094;BME280;8151;47.824;12.092;2023-02-13T12:07:22;98198.28;;;9.37;65.60
16094;BME280;8151;47.824;12.092;2023-02-13T12:09:58;98198.88;;;9.40;65.41
16094;BME280;8151;47.824;12.092;2023-02-13T12:12:32;98194.81;;;9.48;65.31
16094;BME280;8151;47.824;12.092;2023-02-13T12:15:13;98193.97;;;9.47;65.33
16094;BME280;8151;47.824;12.092;2023-02-13T12:17:43;98193.75;;;9.50;65.03
16094;BME280;8151;47.824;12.092;2023-02-13T12:20:15;98190.63;;;9.56;65.22
16094;BME280;8151;47.824;12.092;2023-02-13T12:22:58;98191.59;;;9.55;64.80
16094;BME280;8151;47.824;12.092;2023-02-13T12:26:00;98183.31;;;9.60;64.87
16094;BME280;8151;47.824;12.092;2023-02-13T12:28:50;98178.91;;;9.72;64.62
16094;BME280;8151;47.824;12.092;2023-02-13T12:31:41;98178.91;;;9.83;63.82
16094;BME280;8151;47.824;12.092;2023-02-13T12:37:38;98166.75;;;9.80;64.49
16094;BME280;8151;47.824;12.092;2023-02-13T12:40:34;98167.13;;;9.87;64.26
16094;BME280;8151;47.824;12.092;2023-02-13T12:43:27;98169.28;;;9.93;63.99
16094;BME280;8151;47.824;12.092;2023-02-13T12:46:03;98175.66;;;10.02;64.51
16094;BME280;8151;47.824;12.092;2023-02-13T12:48:39;98165.78;;;10.04;63.26
16094;BME280;8151;47.824;12.092;2023-02-13T12:51:24;98170.13;;;10.05;63.46
16094;BME280;8151;47.824;12.092;2023-02-13T12:54:09;98167.38;;;10.07;63.55
16094;BME280;8151;47.824;12.092;2023-02-13T12:56:51;98171.56;;;10.09;63.60
16094;BME280;8151;47.824;12.092;2023-02-13T12:59:31;98162.53;;;10.12;63.10
16094;BME280;8151;47.824;12.092;2023-02-13T13:02:26;98162.09;;;10.07;63.23
16094;BME280;8151;47.824;12.092;2023-02-13T13:05:13;98161.47;;;10.03;63.56
16094;BME280;8151;47.824;12.092;2023-02-13T13:07:57;98164.84;;;10.05;63.40
16094;BME280;8151;47.824;12.092;2023-02-13T13:10:46;98165.44;;;10.09;62.73
16094;BME280;8151;47.824;12.092;2023-02-13T13:13:27;98162.69;;;10.10;62.93
16094;BME280;8151;47.824;12.092;2023-02-13T13:16:05;98157.25;;;10.12;62.79
16094;BME280;8151;47.824;12.092;2023-02-13T13:18:44;98149.31;;;10.12;62.73
16094;BME280;8151;47.824;12.092;2023-02-13T13:21:26;98151.72;;;10.15;62.56
16094;BME280;8151;47.824;12.092;2023-02-13T13:24:02;98154.16;;;10.18;62.79
16094;BME280;8151;47.824;12.092;2023-02-13T13:26:38;98152.06;;;10.21;62.36
16094;BME280;8151;47.824;12.092;2023-02-13T13:29:11;98143.06;;;10.24;62.64
16094;BME280;8151;47.824;12.092;2023-02-13T13:31:45;98152.06;;;10.21;62.64
16094;BME280;8151;47.824;12.092;2023-02-13T13:34:22;98149.69;;;10.18;61.76
16094;BME280;8151;47.824;12.092;2023-02-13T13:36:56;98152.06;;;10.21;62.32
16094;BME280;8151;47.824;12.092;2023-02-13T13:39:35;98149.81;;;10.28;61.64
16094;BME280;8151;47.824;12.092;2023-02-13T13:42:12;98150.63;;;10.29;61.85
16094;BME280;8151;47.824;12.092;2023-02-13T13:44:53;98150.28;;;10.22;61.54
16094;BME280;8151;47.824;12.092;2023-02-13T13:47:39;98148.25;;;10.25;61.70
16094;BME280;8151;47.824;12.092;2023-02-13T13:50:18;98150.56;;;10.30;61.35
16094;BME280;8151;47.824;12.092;2023-02-13T13:53:10;98152.69;;;10.36;60.68